Time;durP1;ratioP1;P1;durP2;ratioP2;P2;SDS_P1;SDS_P2;PMS_P1;PMS_P2;Temp;Humidity;BMP_temperature;BMP_pressure;BME280_temperature;BME280_humidity;BME280_pressure;Samples;Min_cycle;Max_cycle;Signal;HPM_P1;HPM_P2
2022/07/30 00:01:59;;;;;;;1.90;1.80;;;;;;;;;;5031102;28;20215;-58
2022/07/30 00:04:25;;;;;;;2.00;1.90;;;;;;;;;;5023095;28;20220;-59
2022/07/30 00:06:51;;;;;;;1.90;1.80;;;;;;;;;;5025871;28;20299;-58
2022/07/30 00:09:16;;;;;;;1.77;1.70;;;;;;;;;;5024487;28;20244;-59
2022/07/30 00:11:42;;;;;;;1.60;1.60;;;;;;;;;;5032221;28;20216;-59
2022/07/30 00:14:08;;;;;;;1.60;1.60;;;;;;;;;;5005931;28;20322;-58
2022/07/30 00:16:34;;;;;;;1.60;1.60;;;;;;;;;;5017779;28;20331;-59
2022/07/30 00:19:01;;;;;;;1.60;1.60;;;;;;;;;;5030891;28;20897;-59
2022/07/30 00:21:27;;;;;;;1.57;1.57;;;;;;;;;;5031790;28;20259;-59
2022/07/30 00:23:53;;;;;;;1.50;1.50;;;;;;;;;;5008930;28;20229;-59
2022/07/30 00:26:19;;;;;;;1.60;1.60;;;;;;;;;;5025586;28;20214;-59
2022/07/30 00:28:45;;;;;;;1.60;1.60;;;;;;;;;;5011101;28;20928;-58
2022/07/30 00:31:10;;;;;;;1.50;1.50;;;;;;;;;;5023275;28;20758;-59
2022/07/30 00:33:36;;;;;;;1.57;1.57;;;;;;;;;;5024826;28;20216;-59
2022/07/30 00:36:02;;;;;;;1.40;1.40;;;;;;;;;;5032009;28;20263;-58
2022/07/30 00:38:28;;;;;;;1.43;1.43;;;;;;;;;;5039341;28;20220;-59
2022/07/30 00:40:54;;;;;;;1.70;1.63;;;;;;;;;;5046926;28;20295;-58
2022/07/30 00:43:20;;;;;;;1.50;1.50;;;;;;;;;;5019155;28;20229;-58
2022/07/30 00:45:46;;;;;;;1.57;1.57;;;;;;;;;;5023171;28;20273;-59
2022/07/30 00:48:12;;;;;;;1.60;1.60;;;;;;;;;;5023208;28;20232;-59
2022/07/30 00:50:38;;;;;;;1.50;1.50;;;;;;;;;;5025269;28;20220;-58
2022/07/30 00:53:05;;;;;;;1.80;1.70;;;;;;;;;;5025892;28;20639;-59
2022/07/30 00:55:31;;;;;;;1.50;1.50;;;;;;;;;;5014618;28;20225;-58
2022/07/30 00:57:57;;;;;;;1.50;1.50;;;;;;;;;;5025568;28;20203;-58
2022/07/30 01:00:23;;;;;;;1.60;1.60;;;;;;;;;;5020809;28;20551;-59
2022/07/30 01:02:48;;;;;;;1.70;1.70;;;;;;;;;;5026202;28;20220;-60
2022/07/30 01:05:14;;;;;;;2.10;2.00;;;;;;;;;;5029723;28;20221;-61
2022/07/30 01:07:40;;;;;;;2.10;2.00;;;;;;;;;;5022605;28;20230;-61
2022/07/30 01:10:07;;;;;;;2.00;1.90;;;;;;;;;;5024769;28;20210;-60
2022/07/30 01:12:33;;;;;;;1.90;1.80;;;;;;;;;;5023643;28;20234;-60
2022/07/30 01:14:59;;;;;;;1.70;1.70;;;;;;;;;;5011003;28;20706;-60
2022/07/30 01:17:25;;;;;;;1.60;1.60;;;;;;;;;;5025343;28;20276;-60
2022/07/30 01:19:52;;;;;;;2.10;2.00;;;;;;;;;;5023306;28;20201;-60
2022/07/30 01:22:24;;;;;;;1.60;1.60;;;;;;;;;;5014576;28;20193;-60
2022/07/30 01:24:52;;;;;;;1.90;1.80;;;;;;;;;;5028983;28;20228;-60
2022/07/30 01:27:18;;;;;;;1.80;1.70;;;;;;;;;;5024610;28;20254;-59
2022/07/30 01:29:44;;;;;;;2.00;1.90;;;;;;;;;;5020930;28;20618;-60
2022/07/30 01:32:10;;;;;;;2.00;1.90;;;;;;;;;;5023184;28;20674;-60
2022/07/30 01:34:36;;;;;;;2.30;2.20;;;;;;;;;;5023591;28;20224;-60
2022/07/30 01:37:02;;;;;;;2.20;2.10;;;;;;;;;;5018555;28;20235;-60
2022/07/30 01:39:29;;;;;;;2.10;2.00;;;;;;;;;;5011482;28;20294;-60
2022/07/30 01:41:55;;;;;;;2.10;2.00;;;;;;;;;;5008011;28;20220;-60
2022/07/30 01:44:21;;;;;;;1.90;1.80;;;;;;;;;;5023453;28;20205;-61
2022/07/30 01:46:47;;;;;;;2.10;2.00;;;;;;;;;;5019550;28;20250;-60
2022/07/30 01:49:13;;;;;;;2.10;2.00;;;;;;;;;;5029542;28;20219;-60
2022/07/30 01:51:39;;;;;;;2.07;1.97;;;;;;;;;;5020914;28;20215;-60
2022/07/30 01:54:07;;;;;;;2.00;1.90;;;;;;;;;;5020682;28;20282;-60
2022/07/30 01:56:33;;;;;;;2.07;1.97;;;;;;;;;;5024024;28;20275;-61
2022/07/30 01:58:59;;;;;;;2.13;2.03;;;;;;;;;;5015832;28;20293;-60
2022/07/30 02:01:24;;;;;;;2.10;2.00;;;;;;;;;;5023684;28;20233;-60
2022/07/30 02:03:50;;;;;;;2.00;1.90;;;;;;;;;;5024477;28;20239;-60
2022/07/30 02:06:18;;;;;;;1.90;1.80;;;;;;;;;;5029164;28;20200;-60
2022/07/30 02:08:45;;;;;;;1.90;1.80;;;;;;;;;;5026941;28;20200;-60
2022/07/30 02:11:12;;;;;;;0.97;0.97;;;;;;;;;;5028538;28;20869;-60
2022/07/30 02:13:48;;;;;;;1.00;1.00;;;;;;;;;;5025754;28;21898;-61
2022/07/30 02:16:30;;;;;;;1.00;1.00;;;;;;;;;;5034090;28;20248;-60
2022/07/30 02:19:01;;;;;;;1.00;1.00;;;;;;;;;;5016471;28;20192;-60
2022/07/30 02:21:27;;;;;;;1.00;1.00;;;;;;;;;;5014933;28;20205;-60
2022/07/30 02:23:53;;;;;;;0.90;0.90;;;;;;;;;;5022867;28;20229;-60
2022/07/30 02:26:20;;;;;;;0.90;0.90;;;;;;;;;;5020732;28;20712;-60
2022/07/30 02:28:47;;;;;;;1.00;1.00;;;;;;;;;;5014712;28;20331;-60
2022/07/30 02:31:13;;;;;;;0.90;0.90;;;;;;;;;;5010195;28;20576;-61
2022/07/30 02:33:39;;;;;;;1.00;1.00;;;;;;;;;;5007568;28;20181;-60
2022/07/30 02:36:06;;;;;;;0.90;0.90;;;;;;;;;;5020050;28;20307;-60
2022/07/30 02:38:32;;;;;;;1.00;1.00;;;;;;;;;;5023494;28;20216;-60
2022/07/30 02:40:58;;;;;;;1.10;1.10;;;;;;;;;;5030737;28;20200;-60
2022/07/30 02:43:25;;;;;;;1.00;1.00;;;;;;;;;;5023612;28;20591;-60
2022/07/30 02:45:51;;;;;;;1.00;1.00;;;;;;;;;;5007551;28;20203;-60
2022/07/30 02:48:17;;;;;;;1.00;1.00;;;;;;;;;;5025748;28;20208;-60
2022/07/30 02:50:43;;;;;;;1.20;1.20;;;;;;;;;;5022647;28;20213;-60
2022/07/30 02:53:09;;;;;;;1.00;1.00;;;;;;;;;;5034793;28;21089;-59
2022/07/30 02:55:35;;;;;;;2.03;1.93;;;;;;;;;;5022692;28;20233;-60
2022/07/30 02:58:02;;;;;;;2.00;1.90;;;;;;;;;;5023707;28;20678;-60
2022/07/30 03:00:28;;;;;;;2.00;1.90;;;;;;;;;;5004851;28;20701;-60
2022/07/30 03:02:54;;;;;;;2.27;2.17;;;;;;;;;;5013303;28;20284;-60
2022/07/30 03:05:20;;;;;;;2.10;2.00;;;;;;;;;;5010922;28;20704;-60
2022/07/30 03:07:46;;;;;;;1.97;1.87;;;;;;;;;;5025031;28;20797;-60
2022/07/30 03:10:12;;;;;;;1.80;1.70;;;;;;;;;;5025177;28;20229;-60
2022/07/30 03:12:38;;;;;;;1.90;1.80;;;;;;;;;;5025708;28;20298;-60
2022/07/30 03:15:05;;;;;;;1.90;1.80;;;;;;;;;;5020065;28;20224;-60
2022/07/30 03:17:31;;;;;;;1.80;1.70;;;;;;;;;;5021297;28;20327;-60
2022/07/30 03:19:57;;;;;;;2.10;2.00;;;;;;;;;;5008148;28;20742;-60
2022/07/30 03:22:23;;;;;;;1.90;1.80;;;;;;;;;;5024414;28;20209;-60
2022/07/30 03:24:49;;;;;;;2.10;2.00;;;;;;;;;;5028622;28;20600;-59
2022/07/30 03:27:16;;;;;;;1.90;1.80;;;;;;;;;;5010685;28;20192;-60
2022/07/30 03:29:42;;;;;;;2.10;2.00;;;;;;;;;;5011028;28;20208;-60
2022/07/30 03:32:07;;;;;;;2.10;2.00;;;;;;;;;;5027918;28;20650;-60
2022/07/30 03:34:33;;;;;;;1.90;1.80;;;;;;;;;;5020695;28;20266;-60
2022/07/30 03:37:00;;;;;;;2.37;2.27;;;;;;;;;;5028210;28;20199;-60
2022/07/30 03:39:26;;;;;;;2.40;2.30;;;;;;;;;;5028309;28;20350;-60
2022/07/30 03:41:53;;;;;;;2.10;2.00;;;;;;;;;;5027270;28;20189;-60
2022/07/30 03:44:19;;;;;;;2.10;2.00;;;;;;;;;;5027844;28;20198;-60
2022/07/30 03:46:45;;;;;;;2.00;1.90;;;;;;;;;;5029041;28;21546;-60
2022/07/30 03:49:11;;;;;;;1.73;1.70;;;;;;;;;;5026839;28;21115;-60
2022/07/30 03:51:37;;;;;;;1.90;1.80;;;;;;;;;;5026145;28;20208;-60
2022/07/30 03:54:08;;;;;;;1.80;1.70;;;;;;;;;;5014865;28;20252;-60
2022/07/30 03:56:34;;;;;;;1.50;1.50;;;;;;;;;;5026999;28;20240;-60
2022/07/30 03:59:00;;;;;;;1.60;1.60;;;;;;;;;;5031514;28;20267;-59
2022/07/30 04:01:26;;;;;;;1.80;1.70;;;;;;;;;;5026914;28;20660;-60
2022/07/30 04:03:52;;;;;;;1.70;1.70;;;;;;;;;;5021537;28;22033;-61
2022/07/30 04:06:18;;;;;;;1.60;1.60;;;;;;;;;;5020671;28;20227;-60
2022/07/30 04:08:44;;;;;;;1.60;1.60;;;;;;;;;;5026564;28;21325;-60
2022/07/30 04:11:09;;;;;;;1.70;1.70;;;;;;;;;;5021019;28;20660;-59
2022/07/30 04:13:35;;;;;;;1.70;1.70;;;;;;;;;;5014057;28;20697;-60
2022/07/30 04:16:01;;;;;;;1.60;1.60;;;;;;;;;;5016984;28;20241;-60
2022/07/30 04:18:28;;;;;;;1.60;1.60;;;;;;;;;;5001536;28;20186;-59
2022/07/30 04:20:54;;;;;;;1.60;1.60;;;;;;;;;;5004570;28;20545;-60
2022/07/30 04:23:20;;;;;;;1.67;1.63;;;;;;;;;;4976720;28;20247;-60
2022/07/30 04:25:46;;;;;;;1.90;1.80;;;;;;;;;;5008100;28;21008;-60
2022/07/30 04:28:12;;;;;;;1.77;1.70;;;;;;;;;;5008108;28;20213;-60
2022/07/30 04:30:38;;;;;;;1.60;1.60;;;;;;;;;;5013155;28;20196;-60
2022/07/30 04:33:04;;;;;;;1.90;1.80;;;;;;;;;;4983153;28;20270;-61
2022/07/30 04:35:30;;;;;;;1.87;1.77;;;;;;;;;;5010058;28;20244;-60
2022/07/30 04:37:56;;;;;;;1.93;1.83;;;;;;;;;;5009804;28;20268;-59
2022/07/30 04:40:22;;;;;;;1.83;1.73;;;;;;;;;;4999296;28;20300;-60
2022/07/30 04:42:48;;;;;;;1.80;1.70;;;;;;;;;;5006223;28;20803;-59
2022/07/30 04:45:14;;;;;;;1.87;1.77;;;;;;;;;;5006341;28;20217;-58
2022/07/30 04:47:40;;;;;;;1.70;1.70;;;;;;;;;;5006243;28;20274;-60
2022/07/30 04:50:06;;;;;;;1.67;1.67;;;;;;;;;;5009608;28;20279;-61
2022/07/30 04:52:32;;;;;;;1.90;1.80;;;;;;;;;;5006899;28;20235;-60
2022/07/30 04:54:59;;;;;;;1.60;1.60;;;;;;;;;;5006590;28;20228;-60
2022/07/30 04:57:25;;;;;;;1.60;1.60;;;;;;;;;;5013120;28;20220;-60
2022/07/30 04:59:51;;;;;;;1.50;1.50;;;;;;;;;;4995485;28;20217;-60
2022/07/30 05:02:17;;;;;;;1.50;1.50;;;;;;;;;;5012322;28;20219;-61
2022/07/30 05:04:43;;;;;;;1.90;1.80;;;;;;;;;;5006845;28;20193;-61
2022/07/30 05:07:09;;;;;;;2.00;1.90;;;;;;;;;;5012332;28;20193;-60
2022/07/30 05:09:35;;;;;;;1.83;1.73;;;;;;;;;;4998034;28;20208;-61
2022/07/30 05:12:01;;;;;;;1.67;1.67;;;;;;;;;;5013176;28;20303;-60
2022/07/30 05:14:27;;;;;;;1.77;1.70;;;;;;;;;;5005101;28;20308;-60
2022/07/30 05:16:53;;;;;;;1.70;1.70;;;;;;;;;;5020288;28;20633;-61
2022/07/30 05:19:19;;;;;;;2.00;1.90;;;;;;;;;;5028002;28;21821;-60
2022/07/30 05:21:45;;;;;;;1.80;1.70;;;;;;;;;;5028924;28;20200;-60
2022/07/30 05:24:11;;;;;;;1.60;1.60;;;;;;;;;;5032358;28;20301;-61
2022/07/30 05:26:37;;;;;;;1.90;1.80;;;;;;;;;;5026281;28;20824;-60
2022/07/30 05:29:03;;;;;;;1.50;1.50;;;;;;;;;;5027208;28;20219;-60
2022/07/30 05:31:29;;;;;;;1.60;1.60;;;;;;;;;;5025206;28;20624;-61
2022/07/30 05:33:55;;;;;;;1.60;1.60;;;;;;;;;;5029952;28;20582;-60
2022/07/30 05:36:21;;;;;;;1.50;1.50;;;;;;;;;;5024869;28;20295;-61
2022/07/30 05:38:47;;;;;;;1.60;1.60;;;;;;;;;;5037534;28;20196;-59
2022/07/30 05:41:13;;;;;;;1.50;1.50;;;;;;;;;;5045761;28;20212;-59
2022/07/30 05:43:39;;;;;;;1.50;1.50;;;;;;;;;;5029449;28;20205;-59
2022/07/30 05:46:05;;;;;;;1.50;1.50;;;;;;;;;;5028193;28;20252;-60
2022/07/30 05:48:34;;;;;;;1.40;1.40;;;;;;;;;;5025913;28;20207;-59
2022/07/30 05:51:00;;;;;;;1.53;1.53;;;;;;;;;;5022693;28;20224;-58
2022/07/30 05:53:26;;;;;;;1.30;1.30;;;;;;;;;;5031007;28;20221;-58
2022/07/30 05:55:52;;;;;;;1.60;1.60;;;;;;;;;;5024286;28;20493;-58
2022/07/30 05:58:18;;;;;;;1.60;1.60;;;;;;;;;;5026671;28;20224;-59
2022/07/30 06:00:44;;;;;;;1.80;1.70;;;;;;;;;;5023670;28;20192;-59
2022/07/30 06:03:10;;;;;;;1.60;1.60;;;;;;;;;;5021434;28;20197;-59
2022/07/30 06:05:36;;;;;;;1.60;1.60;;;;;;;;;;5023000;28;20219;-58
2022/07/30 06:08:02;;;;;;;1.50;1.50;;;;;;;;;;5024522;28;20200;-59
2022/07/30 06:10:28;;;;;;;1.60;1.60;;;;;;;;;;5021611;28;20272;-59
2022/07/30 06:12:54;;;;;;;1.50;1.50;;;;;;;;;;5027132;28;21038;-58
2022/07/30 06:15:20;;;;;;;1.50;1.50;;;;;;;;;;5021037;28;20232;-58
2022/07/30 06:17:47;;;;;;;1.60;1.60;;;;;;;;;;5029579;28;20204;-58
2022/07/30 06:20:13;;;;;;;1.60;1.60;;;;;;;;;;5025747;28;20232;-59
2022/07/30 06:22:39;;;;;;;1.60;1.60;;;;;;;;;;5014974;28;20201;-58
2022/07/30 06:25:05;;;;;;;1.80;1.70;;;;;;;;;;5020720;28;22899;-59
2022/07/30 06:27:32;;;;;;;1.87;1.77;;;;;;;;;;5020035;28;20208;-59
2022/07/30 06:29:58;;;;;;;1.70;1.70;;;;;;;;;;5024031;28;20223;-58
2022/07/30 06:32:25;;;;;;;1.60;1.60;;;;;;;;;;5016945;28;20300;-58
2022/07/30 06:34:51;;;;;;;1.60;1.60;;;;;;;;;;5015960;28;20240;-58
2022/07/30 06:37:17;;;;;;;1.60;1.60;;;;;;;;;;5019001;28;20196;-57
2022/07/30 06:39:43;;;;;;;1.50;1.50;;;;;;;;;;5019543;28;20208;-59
2022/07/30 06:42:08;;;;;;;1.80;1.70;;;;;;;;;;5022957;28;20589;-58
2022/07/30 06:44:34;;;;;;;1.80;1.70;;;;;;;;;;5020803;28;20957;-57
2022/07/30 06:47:00;;;;;;;1.60;1.60;;;;;;;;;;5024516;28;20211;-57
2022/07/30 06:49:26;;;;;;;1.60;1.60;;;;;;;;;;5027046;28;20187;-57
2022/07/30 06:51:52;;;;;;;1.20;1.20;;;;;;;;;;5024274;28;20250;-57
2022/07/30 06:54:18;;;;;;;1.20;1.20;;;;;;;;;;5031374;28;20319;-56
2022/07/30 06:56:44;;;;;;;1.10;1.10;;;;;;;;;;5028716;28;20197;-57
2022/07/30 06:59:10;;;;;;;1.30;1.30;;;;;;;;;;5024344;28;20341;-57
2022/07/30 07:01:36;;;;;;;1.50;1.50;;;;;;;;;;5024312;28;20192;-57
2022/07/30 07:04:03;;;;;;;1.40;1.40;;;;;;;;;;5028730;28;20221;-57
2022/07/30 07:06:28;;;;;;;1.60;1.60;;;;;;;;;;5030163;28;20235;-57
2022/07/30 07:08:54;;;;;;;1.50;1.50;;;;;;;;;;5032962;28;20697;-57
2022/07/30 07:11:20;;;;;;;1.80;1.70;;;;;;;;;;5028210;28;20295;-58
2022/07/30 07:13:46;;;;;;;1.37;1.37;;;;;;;;;;5026967;28;20259;-59
2022/07/30 07:16:12;;;;;;;1.30;1.30;;;;;;;;;;5022609;28;20276;-58
2022/07/30 07:18:38;;;;;;;1.40;1.40;;;;;;;;;;5021476;28;20200;-56
2022/07/30 07:21:05;;;;;;;1.30;1.30;;;;;;;;;;5025289;28;20314;-56
2022/07/30 07:23:31;;;;;;;1.23;1.23;;;;;;;;;;5024115;28;20362;-56
2022/07/30 07:25:56;;;;;;;1.20;1.20;;;;;;;;;;5025137;28;20250;-57
2022/07/30 07:28:23;;;;;;;1.20;1.20;;;;;;;;;;5030414;28;20853;-56
2022/07/30 07:30:49;;;;;;;1.30;1.30;;;;;;;;;;5021357;28;20745;-57
2022/07/30 07:33:15;;;;;;;1.40;1.40;;;;;;;;;;5005520;28;20196;-58
2022/07/30 07:35:41;;;;;;;1.60;1.60;;;;;;;;;;5026120;28;20220;-57
2022/07/30 07:38:07;;;;;;;1.50;1.50;;;;;;;;;;5026821;28;20231;-57
2022/07/30 07:40:33;;;;;;;1.60;1.60;;;;;;;;;;5028616;28;20212;-59
2022/07/30 07:42:58;;;;;;;1.60;1.60;;;;;;;;;;5026798;28;20220;-57
2022/07/30 07:45:24;;;;;;;1.60;1.60;;;;;;;;;;5028361;28;20213;-56
2022/07/30 07:47:50;;;;;;;1.60;1.60;;;;;;;;;;5023660;28;20185;-57
2022/07/30 07:50:17;;;;;;;1.83;1.73;;;;;;;;;;5021209;28;20189;-56
2022/07/30 07:52:43;;;;;;;1.80;1.70;;;;;;;;;;5027348;28;20666;-56
2022/07/30 07:55:09;;;;;;;1.85;1.75;;;;;;;;;;5030975;28;20249;-58
2022/07/30 07:57:41;;;;;;;1.70;1.70;;;;;;;;;;5026751;28;20253;-57
2022/07/30 08:00:08;;;;;;;1.70;1.70;;;;;;;;;;5015045;28;20192;-57
2022/07/30 08:02:34;;;;;;;1.60;1.60;;;;;;;;;;5017853;28;20286;-57
2022/07/30 08:05:00;;;;;;;1.90;1.80;;;;;;;;;;5007459;28;20189;-57
2022/07/30 08:07:26;;;;;;;1.90;1.80;;;;;;;;;;5026069;28;20239;-57
2022/07/30 08:09:51;;;;;;;1.92;1.83;;;;;;;;;;5027537;28;20375;-57
2022/07/30 08:12:17;;;;;;;1.90;1.80;;;;;;;;;;5026114;28;20212;-57
2022/07/30 08:14:43;;;;;;;1.60;1.60;;;;;;;;;;5027581;28;20243;-57
2022/07/30 08:17:09;;;;;;;1.80;1.70;;;;;;;;;;5025350;28;20323;-57
2022/07/30 08:19:35;;;;;;;2.00;1.90;;;;;;;;;;5028802;28;20276;-57
2022/07/30 08:22:01;;;;;;;1.70;1.70;;;;;;;;;;5026383;28;20216;-57
2022/07/30 08:24:27;;;;;;;1.80;1.70;;;;;;;;;;5028816;28;20503;-57
2022/07/30 08:26:53;;;;;;;1.60;1.60;;;;;;;;;;5027027;28;20291;-57
2022/07/30 08:29:19;;;;;;;1.60;1.60;;;;;;;;;;5028705;28;20271;-57
2022/07/30 08:31:45;;;;;;;1.33;1.33;;;;;;;;;;5018830;28;20231;-57
2022/07/30 08:34:12;;;;;;;1.70;1.67;;;;;;;;;;5026081;28;20259;-57
2022/07/30 08:36:38;;;;;;;1.80;1.70;;;;;;;;;;5028641;28;20193;-58
2022/07/30 08:39:04;;;;;;;1.90;1.80;;;;;;;;;;5024329;28;20682;-58
2022/07/30 08:41:30;;;;;;;1.60;1.60;;;;;;;;;;5026690;28;20239;-58
2022/07/30 08:43:56;;;;;;;1.92;1.83;;;;;;;;;;5022736;28;20193;-57
2022/07/30 08:46:22;;;;;;;1.80;1.70;;;;;;;;;;5025908;28;20662;-57
2022/07/30 08:48:48;;;;;;;1.85;1.75;;;;;;;;;;5028851;28;20288;-57
2022/07/30 08:51:16;;;;;;;1.90;1.80;;;;;;;;;;5025364;28;20217;-57
2022/07/30 08:53:42;;;;;;;1.77;1.70;;;;;;;;;;5023327;28;20212;-57
2022/07/30 08:56:08;;;;;;;1.90;1.80;;;;;;;;;;5013723;28;20224;-57
2022/07/30 08:58:34;;;;;;;1.80;1.70;;;;;;;;;;5007950;28;20302;-58
2022/07/30 09:01:00;;;;;;;1.70;1.70;;;;;;;;;;5021472;28;20224;-58
2022/07/30 09:03:26;;;;;;;2.00;1.90;;;;;;;;;;5022264;28;20212;-57
2022/07/30 09:05:52;;;;;;;1.80;1.70;;;;;;;;;;5009315;28;21161;-57
2022/07/30 09:08:18;;;;;;;1.90;1.80;;;;;;;;;;5026429;28;20213;-58
2022/07/30 09:10:44;;;;;;;1.70;1.70;;;;;;;;;;5017801;28;20191;-57
2022/07/30 09:13:30;;;;;;;2.03;1.92;;;;;;;;;;5006654;28;20201;-58
2022/07/30 09:15:56;;;;;;;1.98;1.88;;;;;;;;;;5022716;28;20247;-57
2022/07/30 09:18:29;;;;;;;1.90;1.80;;;;;;;;;;5030515;28;20196;-58
2022/07/30 09:20:55;;;;;;;2.00;1.90;;;;;;;;;;5027546;28;20720;-58
2022/07/30 09:23:21;;;;;;;1.10;1.10;;;;;;;;;;5022374;28;20224;-58
2022/07/30 09:25:47;;;;;;;1.10;1.10;;;;;;;;;;5028162;28;20219;-58
2022/07/30 09:28:13;;;;;;;1.00;1.00;;;;;;;;;;5026960;28;20224;-59
2022/07/30 09:30:44;;;;;;;1.10;1.10;;;;;;;;;;5025326;28;20242;-59
2022/07/30 09:33:10;;;;;;;1.00;1.00;;;;;;;;;;5025664;28;20294;-58
2022/07/30 09:35:36;;;;;;;1.10;1.10;;;;;;;;;;5030738;28;20767;-58
2022/07/30 09:38:03;;;;;;;1.10;1.10;;;;;;;;;;5025077;28;20224;-58
2022/07/30 09:40:29;;;;;;;1.10;1.10;;;;;;;;;;5028826;28;20352;-59
2022/07/30 09:43:09;;;;;;;1.08;1.08;;;;;;;;;;5007510;28;20731;-58
2022/07/30 09:45:35;;;;;;;1.00;1.00;;;;;;;;;;5026960;28;20289;-59
2022/07/30 09:48:01;;;;;;;2.00;1.90;;;;;;;;;;5026142;28;20694;-58
2022/07/30 09:50:27;;;;;;;2.00;1.90;;;;;;;;;;5029311;28;20228;-59
2022/07/30 09:52:53;;;;;;;2.25;2.15;;;;;;;;;;5022569;28;20203;-58
2022/07/30 09:55:29;;;;;;;2.10;2.00;;;;;;;;;;5022358;28;20220;-59
2022/07/30 09:57:56;;;;;;;1.90;1.80;;;;;;;;;;5026002;28;20191;-58
2022/07/30 10:00:23;;;;;;;1.90;1.80;;;;;;;;;;5023379;28;20212;-59
2022/07/30 10:02:50;;;;;;;2.00;1.90;;;;;;;;;;5028778;28;20224;-58
2022/07/30 10:05:17;;;;;;;2.00;1.90;;;;;;;;;;5017191;28;20254;-59
2022/07/30 10:07:51;;;;;;;1.90;1.80;;;;;;;;;;5032006;28;20203;-59
2022/07/30 10:10:17;;;;;;;1.98;1.88;;;;;;;;;;5032925;28;20266;-58
2022/07/30 10:12:43;;;;;;;1.92;1.83;;;;;;;;;;5024617;28;21165;-59
2022/07/30 10:15:09;;;;;;;2.08;1.98;;;;;;;;;;5027213;28;20225;-58
2022/07/30 10:17:37;;;;;;;1.90;1.80;;;;;;;;;;5024777;28;20282;-58
2022/07/30 10:20:04;;;;;;;1.90;1.80;;;;;;;;;;5026622;28;20628;-58
2022/07/30 10:22:30;;;;;;;1.90;1.80;;;;;;;;;;5027480;28;20198;-58
2022/07/30 10:24:56;;;;;;;2.00;1.90;;;;;;;;;;5027560;28;20223;-59
2022/07/30 10:27:21;;;;;;;2.00;1.90;;;;;;;;;;5026154;28;20270;-58
2022/07/30 10:29:47;;;;;;;1.90;1.80;;;;;;;;;;5026780;28;20291;-58
2022/07/30 10:32:13;;;;;;;2.00;1.90;;;;;;;;;;5005728;28;20216;-57
2022/07/30 10:34:39;;;;;;;2.00;1.90;;;;;;;;;;5015438;28;20229;-58
2022/07/30 10:37:05;;;;;;;2.20;2.10;;;;;;;;;;5018938;28;20192;-57
2022/07/30 10:39:34;;;;;;;1.90;1.80;;;;;;;;;;5032216;28;24768;-58
2022/07/30 10:42:13;;;;;;;1.90;1.80;;;;;;;;;;5028944;28;20220;-58
2022/07/30 10:44:45;;;;;;;1.77;1.70;;;;;;;;;;5019188;28;20732;-61
2022/07/30 10:47:12;;;;;;;1.50;1.50;;;;;;;;;;5019131;28;20193;-60
2022/07/30 10:49:38;;;;;;;1.50;1.50;;;;;;;;;;5022226;28;20291;-61
2022/07/30 10:52:04;;;;;;;0.90;0.90;;;;;;;;;;5016654;28;20193;-61
2022/07/30 10:54:33;;;;;;;1.40;1.40;;;;;;;;;;5030427;28;20220;-61
2022/07/30 10:57:05;;;;;;;0.70;0.70;;;;;;;;;;5048821;28;20247;-61
2022/07/30 10:59:50;;;;;;;0.70;0.70;;;;;;;;;;5036748;28;20232;-61
2022/07/30 11:02:16;;;;;;;1.00;1.00;;;;;;;;;;5023578;28;20590;-60
2022/07/30 11:04:42;;;;;;;1.10;1.10;;;;;;;;;;5024667;28;20224;-61
2022/07/30 11:07:21;;;;;;;1.20;1.20;;;;;;;;;;5020134;28;20693;-62
2022/07/30 11:09:47;;;;;;;1.10;1.10;;;;;;;;;;5023878;28;20216;-61
2022/07/30 11:12:13;;;;;;;1.10;1.10;;;;;;;;;;5016659;28;20249;-61
2022/07/30 11:14:45;;;;;;;1.10;1.10;;;;;;;;;;5017059;28;20341;-61
2022/07/30 11:17:17;;;;;;;1.10;1.10;;;;;;;;;;4992525;28;1035424;-61
2022/07/30 11:20:03;;;;;;;1.13;1.13;;;;;;;;;;5026052;28;20289;-61
2022/07/30 11:22:39;;;;;;;1.10;1.10;;;;;;;;;;5029366;28;20680;-60
2022/07/30 11:25:08;;;;;;;1.10;1.10;;;;;;;;;;5028650;28;20219;-60
2022/07/30 11:27:37;;;;;;;1.10;1.10;;;;;;;;;;5027457;28;20239;-61
2022/07/30 11:30:27;;;;;;;1.00;1.00;;;;;;;;;;5030333;28;20312;-60
2022/07/30 11:32:53;;;;;;;1.10;1.10;;;;;;;;;;5016837;28;20652;-61
2022/07/30 11:35:20;;;;;;;1.10;1.10;;;;;;;;;;5027807;28;20705;-60
2022/07/30 11:38:08;;;;;;;1.00;1.00;;;;;;;;;;5026744;28;20674;-60
2022/07/30 11:40:35;;;;;;;1.20;1.20;;;;;;;;;;5020589;28;20185;-60
2022/07/30 11:43:19;;;;;;;1.20;1.20;;;;;;;;;;5029352;28;20591;-61
2022/07/30 11:45:46;;;;;;;1.15;1.15;;;;;;;;;;5028409;28;20291;-60
2022/07/30 11:48:13;;;;;;;1.10;1.10;;;;;;;;;;5023786;28;20251;-60
2022/07/30 11:50:39;;;;;;;1.00;1.00;;;;;;;;;;5012611;28;20230;-61
2022/07/30 11:53:05;;;;;;;1.00;1.00;;;;;;;;;;5025788;28;20215;-60
2022/07/30 11:55:41;;;;;;;1.10;1.10;;;;;;;;;;5027788;28;20232;-61
2022/07/30 11:58:08;;;;;;;1.00;1.00;;;;;;;;;;5028206;28;20227;-61
2022/07/30 12:00:35;;;;;;;1.00;1.00;;;;;;;;;;5017320;28;20224;-59
2022/07/30 12:03:07;;;;;;;1.23;1.23;;;;;;;;;;5023973;28;20199;-59
2022/07/30 12:05:33;;;;;;;1.30;1.30;;;;;;;;;;5024826;28;20216;-63
2022/07/30 12:07:59;;;;;;;1.10;1.10;;;;;;;;;;5025565;28;20220;-63
2022/07/30 12:10:25;;;;;;;1.10;1.10;;;;;;;;;;5027677;28;21866;-64
2022/07/30 12:12:51;;;;;;;1.08;1.08;;;;;;;;;;5022856;28;20209;-64
2022/07/30 12:15:30;;;;;;;1.20;1.20;;;;;;;;;;5021812;28;20703;-64
2022/07/30 12:17:56;;;;;;;1.00;1.00;;;;;;;;;;5028232;28;22286;-64
2022/07/30 12:20:22;;;;;;;1.10;1.10;;;;;;;;;;5027191;28;20200;-65
2022/07/30 12:22:48;;;;;;;1.00;1.00;;;;;;;;;;5025746;28;20238;-61
2022/07/30 12:25:14;;;;;;;1.00;1.00;;;;;;;;;;5023251;28;20778;-64
2022/07/30 12:27:40;;;;;;;1.10;1.10;;;;;;;;;;5029003;28;20259;-62
2022/07/30 12:30:07;;;;;;;1.10;1.10;;;;;;;;;;5026030;28;20197;-62
2022/07/30 12:32:33;;;;;;;1.00;1.00;;;;;;;;;;5031373;28;20653;-62
2022/07/30 12:34:59;;;;;;;1.10;1.10;;;;;;;;;;5023748;28;20295;-59
2022/07/30 12:37:25;;;;;;;1.10;1.10;;;;;;;;;;5030409;28;20365;-62
2022/07/30 12:40:04;;;;;;;1.00;1.00;;;;;;;;;;5024947;28;20204;-61
2022/07/30 12:42:30;;;;;;;1.10;1.10;;;;;;;;;;5026074;28;20223;-62
2022/07/30 12:44:56;;;;;;;1.13;1.13;;;;;;;;;;5020882;28;20228;-61
2022/07/30 12:47:26;;;;;;;1.20;1.20;;;;;;;;;;5028700;28;20250;-61
2022/07/30 12:49:52;;;;;;;1.20;1.20;;;;;;;;;;5027461;28;20201;-61
2022/07/30 12:52:28;;;;;;;1.20;1.20;;;;;;;;;;5024031;28;20243;-61
2022/07/30 12:55:07;;;;;;;1.20;1.20;;;;;;;;;;5025623;28;20689;-62
2022/07/30 12:57:52;;;;;;;1.20;1.20;;;;;;;;;;5023733;28;20216;-62
2022/07/30 13:00:18;;;;;;;1.10;1.10;;;;;;;;;;5019043;28;20575;-62
2022/07/30 13:02:44;;;;;;;1.40;1.40;;;;;;;;;;5019798;28;20433;-62
2022/07/30 13:05:10;;;;;;;1.10;1.10;;;;;;;;;;5014768;28;20930;-64
2022/07/30 13:07:36;;;;;;;1.15;1.15;;;;;;;;;;5022719;28;20701;-64
2022/07/30 13:10:12;;;;;;;1.20;1.20;;;;;;;;;;5008473;28;20222;-64
2022/07/30 13:12:37;;;;;;;1.00;1.00;;;;;;;;;;5028506;28;20277;-63
2022/07/30 13:15:04;;;;;;;1.30;1.30;;;;;;;;;;5027400;28;20677;-63
2022/07/30 13:17:30;;;;;;;1.40;1.40;;;;;;;;;;5027119;28;20241;-63
2022/07/30 13:19:56;;;;;;;1.10;1.10;;;;;;;;;;5038489;28;20291;-63
2022/07/30 13:22:22;;;;;;;0.90;0.90;;;;;;;;;;5027390;28;20342;-63
2022/07/30 13:24:48;;;;;;;1.30;1.30;;;;;;;;;;5032527;28;20242;-63
2022/07/30 13:27:15;;;;;;;1.40;1.40;;;;;;;;;;5032052;28;20218;-63
2022/07/30 13:29:41;;;;;;;1.50;1.50;;;;;;;;;;5025251;28;20206;-63
2022/07/30 13:32:07;;;;;;;1.42;1.42;;;;;;;;;;5019539;28;20231;-63
2022/07/30 13:34:33;;;;;;;1.40;1.40;;;;;;;;;;5028651;28;20235;-63
2022/07/30 13:36:59;;;;;;;1.50;1.50;;;;;;;;;;5018000;28;20684;-64
2022/07/30 13:39:25;;;;;;;1.50;1.50;;;;;;;;;;5023810;28;20601;-62
2022/07/30 13:41:51;;;;;;;1.30;1.30;;;;;;;;;;5030274;28;24663;-63
2022/07/30 13:44:17;;;;;;;1.50;1.50;;;;;;;;;;5029046;28;20226;-63
2022/07/30 13:46:43;;;;;;;1.40;1.40;;;;;;;;;;5026031;28;20223;-64
2022/07/30 13:49:09;;;;;;;1.42;1.42;;;;;;;;;;5030029;28;21135;-63
2022/07/30 13:51:35;;;;;;;1.63;1.63;;;;;;;;;;5025243;28;20646;-64
2022/07/30 13:54:01;;;;;;;1.40;1.40;;;;;;;;;;5017957;28;20230;-63
2022/07/30 13:56:27;;;;;;;1.50;1.50;;;;;;;;;;5025210;28;20220;-63
2022/07/30 13:58:53;;;;;;;1.38;1.38;;;;;;;;;;5029848;28;20209;-64
2022/07/30 14:01:19;;;;;;;1.40;1.40;;;;;;;;;;5028048;28;20224;-63
2022/07/30 14:03:45;;;;;;;1.80;1.70;;;;;;;;;;5028459;28;21658;-63
2022/07/30 14:06:11;;;;;;;1.42;1.42;;;;;;;;;;5023456;28;20200;-63
2022/07/30 14:08:37;;;;;;;1.20;1.20;;;;;;;;;;5027226;28;22871;-63
2022/07/30 14:11:03;;;;;;;1.20;1.20;;;;;;;;;;5029963;28;20747;-62
2022/07/30 14:13:29;;;;;;;1.33;1.33;;;;;;;;;;5027804;28;20646;-63
2022/07/30 14:15:55;;;;;;;1.10;1.10;;;;;;;;;;5023502;28;21267;-62
2022/07/30 14:18:21;;;;;;;1.10;1.10;;;;;;;;;;5029025;28;20566;-62
2022/07/30 14:20:48;;;;;;;1.13;1.13;;;;;;;;;;5027206;28;20625;-63
2022/07/30 14:23:14;;;;;;;1.10;1.10;;;;;;;;;;5024231;28;20227;-63
2022/07/30 14:25:42;;;;;;;1.10;1.10;;;;;;;;;;5025674;28;20299;-63
2022/07/30 14:28:08;;;;;;;1.10;1.10;;;;;;;;;;5027116;28;20321;-63
2022/07/30 14:30:35;;;;;;;1.00;1.00;;;;;;;;;;5029484;28;20211;-62
2022/07/30 14:33:01;;;;;;;1.10;1.10;;;;;;;;;;5026643;28;20232;-63
2022/07/30 14:35:27;;;;;;;1.30;1.30;;;;;;;;;;5025697;28;20457;-63
2022/07/30 14:37:53;;;;;;;1.10;1.10;;;;;;;;;;5022023;28;20228;-62
2022/07/30 14:40:18;;;;;;;1.10;1.10;;;;;;;;;;5022832;28;20226;-62
2022/07/30 14:42:46;;;;;;;1.10;1.10;;;;;;;;;;5019838;28;20220;-62